Culdrose, United Kingdom

10:08 AM GMT on December 03, 2016 (GMT +0000)
Culdrose Navy | | Change Station

Elev 266 ft 50.08 °N, 5.26 °W | Updated 18 minutes ago

Haze
Haze
46 °F
Feels Like 39 °F
N
18
Wind Variable Wind from East

Today
High -- | Low -- °F
--% Chance of Precip.
Yesterday
High -- | Low -- °F
Precip. -- in
Pressure 30.12 in
Visibility 5.0 miles
Clouds Few 600 ft
Scattered Clouds 1200 ft
Mostly Cloudy 2000 ft
Windchill 39 °F
Dew Point 45 °F
Humidity 93%
Rainfall 0.00 in
Snow Depth Not available.
8:01 AM 4:20 PM
Waxing Crescent, 14% visible
METAR EGDR 030950Z 10016KT 8000 HZ FEW006 SCT012 BKN020 08/07 Q1020 RERA GRN TEMPO 3500 -RA SCT006 YLO1
Pressure 30.12 in
Visibility 5.0 miles
Clouds Few 600 ft
Scattered Clouds 1200 ft
Mostly Cloudy 2000 ft
Windchill 39 °F
Dew Point 45 °F
Humidity 93%
Rainfall 0.00 in
Snow Depth Not available.
8:01 AM 4:20 PM
Waxing Crescent, 14% visible
METAR EGDR 030950Z 10016KT 8000 HZ FEW006 SCT012 BKN020 08/07 Q1020 RERA GRN TEMPO 3500 -RA SCT006 YLO1

10-Day Weather Forecast

×

Almanac

Astronomy

Dec. 03, 2016 Rise Set
Actual Time
Civil Twilight
Nautical Twilight
Astronomical Twilight
Moon
Length of Visible Light
Length of Day
Tomorrow will be .
, % of the Moon is Illuminated

Today's Extremes

Country Highs Country Lows

Community

WunderPhotos

Upload Photos

1,955,434 photos uploaded!

WunderBlog® & News

Nearby

Air Quality

  Air Quality AQ Index Pollutant
Not available.

Snow Depth

Station Depth Elevation

Earthquake Activity

City Distance Mag. Time & Date
Minimum magnitude displayed is 2.5.

Coastal Water Temperatures

Place Temperature

Stations

Nearby Weather Stations

Station Location Temp. Windchill Dew Point Humidity Wind Precip. Elev Updated Type